createdAt,value
2022-10-28T00:01:51.366Z,5.39
2022-10-28T00:04:19.786Z,5.42
2022-10-28T00:06:48.425Z,5.43
2022-10-28T00:09:17.100Z,5.45
2022-10-28T00:11:45.220Z,5.49
2022-10-28T00:14:14.250Z,5.55
2022-10-28T00:16:43.834Z,5.56
2022-10-28T00:19:12.715Z,5.63
2022-10-28T00:21:41.610Z,5.65
2022-10-28T00:24:10.699Z,5.70
2022-10-28T00:26:39.243Z,5.74
2022-10-28T00:29:09.130Z,5.73
2022-10-28T00:31:38.899Z,5.75
2022-10-28T00:34:10.685Z,5.79
2022-10-28T00:36:40.584Z,5.77
2022-10-28T00:39:11.872Z,5.78
2022-10-28T00:41:40.977Z,5.74
2022-10-28T00:44:24.186Z,5.78
2022-10-28T00:46:53.500Z,5.78
2022-10-28T00:49:23.912Z,5.83
2022-10-28T00:51:54.754Z,5.91
2022-10-28T00:54:23.597Z,5.94
2022-10-28T00:56:53.160Z,5.96
2022-10-28T00:59:23.256Z,5.88
2022-10-28T01:05:11.296Z,5.91
2022-10-28T01:07:40.995Z,5.91
2022-10-28T01:10:10.331Z,5.84
2022-10-28T01:12:43.891Z,5.82
2022-10-28T01:15:14.693Z,5.87
2022-10-28T01:17:55.551Z,5.88
2022-10-28T01:20:37.719Z,5.87
2022-10-28T01:23:14.783Z,5.82
2022-10-28T01:26:02.038Z,5.83
2022-10-28T01:28:38.150Z,5.82
2022-10-28T01:31:15.620Z,5.77
2022-10-28T01:33:48.431Z,5.77
2022-10-28T01:36:18.516Z,5.72
2022-10-28T01:38:51.524Z,5.67
2022-10-28T01:41:22.074Z,5.62
2022-10-28T01:43:51.891Z,5.62
2022-10-28T01:46:23.274Z,5.58
2022-10-28T01:48:54.414Z,5.47
2022-10-28T01:51:25.431Z,5.46
2022-10-28T01:53:56.731Z,5.39
2022-10-28T01:56:27.095Z,5.37
2022-10-28T01:58:56.931Z,5.40
2022-10-28T02:01:27.945Z,5.43
2022-10-28T02:03:56.501Z,5.41
2022-10-28T02:06:26.751Z,5.49
2022-10-28T02:09:01.163Z,5.52
2022-10-28T02:11:44.547Z,5.48
2022-10-28T02:14:19.246Z,5.54
2022-10-28T02:16:51.245Z,5.55
2022-10-28T02:19:25.142Z,5.57
2022-10-28T02:21:58.515Z,5.55
2022-10-28T02:30:17.514Z,5.64
2022-10-28T02:32:50.222Z,5.63
2022-10-28T02:35:20.191Z,5.69
2022-10-28T02:37:50.974Z,5.69
2022-10-28T02:40:20.952Z,5.76
2022-10-28T02:42:51.724Z,5.73
2022-10-28T02:45:23.166Z,5.79
2022-10-28T02:47:54.146Z,5.81
2022-10-28T02:50:26.482Z,5.86
2022-10-28T02:52:56.795Z,5.91
2022-10-28T02:55:26.869Z,5.90
2022-10-28T02:57:55.333Z,5.91
2022-10-28T03:00:25.115Z,5.88
2022-10-28T03:02:54.843Z,5.87
2022-10-28T03:05:22.815Z,5.83
2022-10-28T03:07:50.974Z,5.83
2022-10-28T03:10:19.317Z,5.77
2022-10-28T03:12:47.602Z,5.71
2022-10-28T03:15:16.246Z,5.71
2022-10-28T03:17:44.320Z,5.64
2022-10-28T03:20:13.931Z,5.68
2022-10-28T03:22:43.958Z,5.64
2022-10-28T03:25:13.643Z,5.60
2022-10-28T03:27:42.281Z,5.56
2022-10-28T03:30:10.675Z,5.51
2022-10-28T03:32:38.645Z,5.39
2022-10-28T03:35:08.075Z,5.44
2022-10-28T03:37:37.641Z,5.44
2022-10-28T03:40:08.196Z,5.40
2022-10-28T03:42:38.970Z,5.34
2022-10-28T03:45:09.334Z,5.29
2022-10-28T03:47:37.586Z,5.15
2022-10-28T03:50:06.011Z,5.13
2022-10-28T03:52:34.247Z,5.04
2022-10-28T03:55:04.148Z,4.99
2022-10-28T03:57:33.573Z,5.02
2022-10-28T04:00:01.755Z,5.08
2022-10-28T04:02:32.320Z,5.09
2022-10-28T04:05:00.770Z,5.07
2022-10-28T04:07:28.925Z,5.11
2022-10-28T04:12:43.854Z,5.14
2022-10-28T04:15:12.992Z,5.11
2022-10-28T04:17:41.618Z,5.13
2022-10-28T04:20:10.352Z,5.23
2022-10-28T04:22:38.606Z,5.26
2022-10-28T04:25:07.096Z,5.29
2022-10-28T04:27:35.869Z,5.29
2022-10-28T04:30:06.689Z,5.41
2022-10-28T04:32:34.788Z,5.48
2022-10-28T04:35:02.972Z,5.57
2022-10-28T04:37:32.481Z,5.62
2022-10-28T04:40:01.300Z,5.60
2022-10-28T04:42:29.514Z,5.64
2022-10-28T04:44:57.729Z,5.67
2022-10-28T04:47:27.667Z,5.71
2022-10-28T04:49:55.935Z,5.79
2022-10-28T04:52:24.593Z,5.78
2022-10-28T04:54:52.910Z,5.82
2022-10-28T04:57:21.805Z,5.84
2022-10-28T04:59:50.146Z,5.82
2022-10-28T05:02:18.580Z,5.83
2022-10-28T05:04:48.466Z,5.82
2022-10-28T05:07:19.897Z,5.84
2022-10-28T05:09:50.976Z,5.88
2022-10-28T05:12:20.095Z,5.96
2022-10-28T05:14:51.171Z,5.94
2022-10-28T05:17:22.227Z,5.99
2022-10-28T05:19:52.756Z,6.10
2022-10-28T05:22:20.930Z,6.10
2022-10-28T05:24:49.756Z,6.16
2022-10-28T05:27:18.431Z,6.07
2022-10-28T05:29:47.158Z,6.20
2022-10-28T05:32:15.890Z,6.24
2022-10-28T05:34:44.753Z,6.22
2022-10-28T05:37:15.212Z,6.23
2022-10-28T05:39:43.278Z,6.23
2022-10-28T05:42:12.041Z,6.16
2022-10-28T05:44:40.088Z,6.18
2022-10-28T05:47:08.762Z,6.19
2022-10-28T05:49:37.149Z,6.18
2022-10-28T05:52:06.018Z,6.15
2022-10-28T05:54:36.254Z,6.19
2022-10-28T05:57:04.524Z,6.21
2022-10-28T05:59:33.202Z,6.28
2022-10-28T06:02:01.757Z,6.28
2022-10-28T06:04:31.724Z,6.37
2022-10-28T06:07:00.404Z,6.45
2022-10-28T06:09:29.156Z,6.48
2022-10-28T06:11:57.530Z,6.56
2022-10-28T06:14:26.428Z,6.69
2022-10-28T06:16:54.603Z,6.81
2022-10-28T06:19:23.210Z,6.96
2022-10-28T06:21:51.700Z,7.08
2022-10-28T06:24:20.761Z,7.13
2022-10-28T06:26:50.152Z,7.19
2022-10-28T06:29:20.669Z,7.16
2022-10-28T06:31:49.651Z,7.31
2022-10-28T06:34:18.110Z,7.38
2022-10-28T06:36:46.572Z,7.40
2022-10-28T06:39:14.825Z,7.46
2022-10-28T06:41:43.801Z,7.47
2022-10-28T06:44:12.463Z,7.52
2022-10-28T06:46:44.632Z,7.59
2022-10-28T06:49:13.484Z,7.46
2022-10-28T06:51:41.941Z,7.50
2022-10-28T06:54:10.158Z,7.53
2022-10-28T06:56:38.372Z,7.50
2022-10-28T06:59:08.119Z,7.46
2022-10-28T07:01:36.779Z,7.39
2022-10-28T07:04:07.197Z,7.31
2022-10-28T07:06:35.290Z,7.32
2022-10-28T07:09:04.021Z,7.45
2022-10-28T07:11:32.211Z,7.59
2022-10-28T07:14:00.629Z,7.87
2022-10-28T07:16:29.253Z,8.04
2022-10-28T07:18:57.422Z,8.33
2022-10-28T07:21:28.972Z,8.48
2022-10-28T07:23:57.425Z,8.49
2022-10-28T07:26:26.019Z,8.65
2022-10-28T07:28:54.332Z,8.79
2022-10-28T07:31:23.222Z,8.80
2022-10-28T07:33:54.236Z,8.92
2022-10-28T07:36:23.285Z,9.05
2022-10-28T07:38:53.873Z,9.10
2022-10-28T07:41:23.414Z,9.10
2022-10-28T07:43:52.430Z,9.16
2022-10-28T07:46:22.024Z,9.28
2022-10-28T07:48:50.365Z,9.25
2022-10-28T07:51:19.172Z,9.28
2022-10-28T07:53:47.573Z,9.24
2022-10-28T07:56:17.509Z,9.43
2022-10-28T07:58:47.521Z,9.49
2022-10-28T08:01:17.680Z,9.59
2022-10-28T08:03:48.173Z,9.64
2022-10-28T08:06:18.857Z,9.75
2022-10-28T08:08:47.751Z,9.84
2022-10-28T08:11:19.101Z,9.97
2022-10-28T08:13:47.823Z,9.97
2022-10-28T08:16:15.942Z,9.94
2022-10-28T08:18:46.000Z,10.08
2022-10-28T08:21:15.629Z,10.14
2022-10-28T08:23:47.299Z,10.17
2022-10-28T08:26:17.899Z,10.24
2022-10-28T08:28:47.637Z,10.15
2022-10-28T08:31:16.850Z,10.18
2022-10-28T08:33:47.117Z,10.13
2022-10-28T08:36:16.557Z,10.20
2022-10-28T08:38:45.650Z,10.21
2022-10-28T08:41:24.377Z,10.28
2022-10-28T08:43:59.893Z,10.37
2022-10-28T08:46:34.191Z,10.45
2022-10-28T08:49:02.776Z,10.46
2022-10-28T08:51:40.223Z,10.49
2022-10-28T08:54:15.136Z,10.59
2022-10-28T08:56:46.672Z,10.67
2022-10-28T08:59:21.104Z,10.74
2022-10-28T09:01:53.132Z,10.83
2022-10-28T09:04:27.661Z,10.98
2022-10-28T09:06:55.712Z,10.97
2022-10-28T09:09:25.192Z,11.14
2022-10-28T09:12:02.510Z,11.20
2022-10-28T09:14:44.531Z,11.23
2022-10-28T09:17:18.911Z,11.11
2022-10-28T09:19:50.162Z,11.07
2022-10-28T09:22:33.354Z,10.97
2022-10-28T09:25:04.042Z,10.85
2022-10-28T09:27:39.521Z,10.82
2022-10-28T09:30:20.557Z,10.95
2022-10-28T09:32:54.570Z,11.16
2022-10-28T09:35:26.663Z,11.50
2022-10-28T09:37:58.369Z,11.75
2022-10-28T09:40:28.437Z,11.97
2022-10-28T09:43:01.474Z,12.14
2022-10-28T09:45:33.023Z,12.44
2022-10-28T09:48:05.902Z,12.58
2022-10-28T09:50:34.515Z,12.41
2022-10-28T09:53:06.710Z,12.39
2022-10-28T09:55:35.708Z,12.48
2022-10-28T09:58:04.639Z,12.55
2022-10-28T10:00:35.807Z,12.43
2022-10-28T10:03:04.307Z,12.27
2022-10-28T10:05:35.036Z,12.24
2022-10-28T10:08:06.161Z,12.18
2022-10-28T10:10:37.939Z,11.64
2022-10-28T10:13:08.829Z,11.35
2022-10-28T10:15:40.708Z,11.42
2022-10-28T10:18:13.379Z,11.33
2022-10-28T10:20:48.173Z,11.37
2022-10-28T10:23:24.311Z,11.35
2022-10-28T10:26:08.070Z,11.36
2022-10-28T10:28:43.370Z,11.48
2022-10-28T10:31:18.925Z,11.45
2022-10-28T10:33:50.481Z,11.62
2022-10-28T10:36:21.519Z,11.70
2022-10-28T10:38:50.804Z,11.71
2022-10-28T10:41:34.434Z,11.87
2022-10-28T10:44:03.095Z,11.97
2022-10-28T10:46:41.573Z,11.97
2022-10-28T10:49:14.710Z,11.79
2022-10-28T10:51:52.519Z,11.80
2022-10-28T10:54:21.486Z,11.75
2022-10-28T10:56:49.665Z,11.76
2022-10-28T10:59:21.899Z,11.78
2022-10-28T11:01:52.280Z,11.75
2022-10-28T11:04:22.668Z,11.75
2022-10-28T11:06:52.859Z,11.83
2022-10-28T11:09:24.964Z,11.81
2022-10-28T11:11:55.786Z,11.88
2022-10-28T11:14:26.632Z,11.63
2022-10-28T11:16:58.059Z,11.65
2022-10-28T11:19:30.085Z,11.66
2022-10-28T11:22:12.491Z,11.62
2022-10-28T11:24:52.110Z,11.67
2022-10-28T11:27:27.850Z,11.62
2022-10-28T11:29:57.605Z,11.64
2022-10-28T11:32:40.256Z,11.66
2022-10-28T11:35:35.113Z,11.72
2022-10-28T11:38:09.617Z,11.63
2022-10-28T11:40:42.163Z,11.45
2022-10-28T11:43:17.145Z,11.58
2022-10-28T11:45:51.311Z,11.56
2022-10-28T11:48:27.254Z,11.55
2022-10-28T11:51:01.587Z,11.57
2022-10-28T11:53:41.351Z,11.57
2022-10-28T11:56:15.944Z,11.48
2022-10-28T11:58:50.304Z,11.39
2022-10-28T12:01:27.029Z,11.18
2022-10-28T12:04:04.191Z,11.13
2022-10-28T12:06:40.706Z,11.06
2022-10-28T12:09:15.043Z,11.04
2022-10-28T12:11:56.850Z,10.98
2022-10-28T12:14:28.856Z,10.94
2022-10-28T12:17:01.379Z,10.94
2022-10-28T12:19:34.264Z,11.00
2022-10-28T12:22:06.748Z,11.01
2022-10-28T12:24:37.523Z,11.03
2022-10-28T12:27:15.280Z,11.07
2022-10-28T12:29:50.413Z,11.07
2022-10-28T12:32:22.138Z,11.07
2022-10-28T12:34:53.939Z,11.04
2022-10-28T12:37:23.691Z,11.00
2022-10-28T12:39:58.261Z,10.88
2022-10-28T12:42:30.634Z,10.83
2022-10-28T12:45:00.414Z,10.82
2022-10-28T12:47:32.627Z,10.59
2022-10-28T12:50:06.117Z,10.63
2022-10-28T12:52:45.721Z,10.59
2022-10-28T12:55:20.583Z,10.68
2022-10-28T12:57:52.502Z,10.74
2022-10-28T13:00:27.305Z,10.79
2022-10-28T13:02:59.206Z,10.81
2022-10-28T13:05:35.317Z,10.86
2022-10-28T13:08:20.058Z,10.95
2022-10-28T13:10:52.118Z,10.83
2022-10-28T13:13:30.222Z,10.91
2022-10-28T13:16:09.777Z,10.79
2022-10-28T13:18:54.040Z,10.76
2022-10-28T13:21:32.140Z,10.64
2022-10-28T13:24:05.839Z,10.57
2022-10-28T13:26:35.244Z,10.50
2022-10-28T13:29:04.975Z,10.52
2022-10-28T13:31:40.790Z,10.48
2022-10-28T13:34:10.500Z,10.39
2022-10-28T13:36:43.516Z,10.41
2022-10-28T13:39:24.700Z,10.38
2022-10-28T13:42:07.889Z,10.30
2022-10-28T13:44:51.444Z,10.21
2022-10-28T13:47:30.546Z,10.25
2022-10-28T13:50:16.182Z,10.17
2022-10-28T13:52:47.769Z,10.16
2022-10-28T13:55:23.632Z,10.11
2022-10-28T13:57:54.244Z,10.11
2022-10-28T14:00:36.428Z,10.01
2022-10-28T14:03:06.981Z,10.05
2022-10-28T14:05:56.057Z,10.03
2022-10-28T14:08:28.896Z,9.99
2022-10-28T14:11:01.223Z,10.02
2022-10-28T14:13:30.830Z,10.00
2022-10-28T14:16:16.943Z,9.92
2022-10-28T14:18:53.311Z,9.89
2022-10-28T14:21:22.620Z,9.93
2022-10-28T14:24:18.148Z,9.92
2022-10-28T14:27:05.539Z,9.91
2022-10-28T14:29:44.715Z,9.93
2022-10-28T14:32:31.424Z,9.92
2022-10-28T14:35:00.028Z,9.84
2022-10-28T14:37:41.799Z,9.65
2022-10-28T14:40:35.455Z,9.44
2022-10-28T14:43:15.417Z,9.33
2022-10-28T14:45:52.289Z,9.25
2022-10-28T14:48:46.152Z,9.21
2022-10-28T14:51:17.210Z,9.04
2022-10-28T14:53:46.811Z,9.00
2022-10-28T14:56:20.311Z,8.92
2022-10-28T14:58:48.797Z,8.95
2022-10-28T15:01:29.299Z,8.93
2022-10-28T15:04:00.561Z,8.94
2022-10-28T15:06:30.440Z,8.94
2022-10-28T15:09:03.693Z,8.95
2022-10-28T15:11:36.819Z,8.94
2022-10-28T15:14:14.964Z,8.91
2022-10-28T15:16:50.828Z,8.95
2022-10-28T15:19:21.720Z,8.94
2022-10-28T15:22:07.298Z,8.85
2022-10-28T15:24:35.998Z,8.96
2022-10-28T15:27:04.457Z,8.99
2022-10-28T15:29:36.010Z,9.01
2022-10-28T15:32:13.067Z,8.94
2022-10-28T15:34:44.449Z,8.97
2022-10-28T15:37:19.300Z,8.99
2022-10-28T15:39:49.979Z,8.97
2022-10-28T15:42:45.226Z,8.94
2022-10-28T15:45:20.769Z,8.90
2022-10-28T15:47:52.235Z,8.93
2022-10-28T15:50:29.568Z,8.91
2022-10-28T15:53:16.067Z,8.92
2022-10-28T15:58:39.809Z,8.94
2022-10-28T16:01:12.310Z,8.96
2022-10-28T16:03:46.033Z,8.95
2022-10-28T16:06:25.508Z,8.99
2022-10-28T16:09:07.768Z,9.01
2022-10-28T16:11:39.753Z,9.00
2022-10-28T16:14:16.473Z,8.91
2022-10-28T16:16:45.511Z,8.94
2022-10-28T16:19:24.339Z,8.90
2022-10-28T16:21:52.610Z,8.94
2022-10-28T16:24:20.946Z,9.01
2022-10-28T16:26:50.120Z,9.05
2022-10-28T16:29:18.847Z,9.07
2022-10-28T16:31:50.138Z,9.07
2022-10-28T16:34:20.230Z,9.06
2022-10-28T16:36:48.344Z,9.10
2022-10-28T16:39:16.551Z,9.10
2022-10-28T16:41:44.685Z,9.13
2022-10-28T16:44:18.209Z,9.03
2022-10-28T16:46:46.341Z,9.14
2022-10-28T16:49:14.277Z,9.16
2022-10-28T16:51:45.296Z,9.13
2022-10-28T16:54:13.301Z,9.15
2022-10-28T16:56:41.350Z,9.19
2022-10-28T16:59:09.464Z,9.23
2022-10-28T17:01:37.829Z,9.23
2022-10-28T17:04:06.166Z,9.31
2022-10-28T17:06:34.367Z,9.31
2022-10-28T17:09:04.202Z,9.31
2022-10-28T17:14:00.686Z,9.32
2022-10-28T17:16:28.746Z,9.32
2022-10-28T17:18:56.880Z,9.34
2022-10-28T17:21:25.481Z,9.41
2022-10-28T17:23:53.724Z,9.39
2022-10-28T17:26:23.223Z,9.47
2022-10-28T17:28:52.120Z,9.52
2022-10-28T17:31:23.916Z,9.44
2022-10-28T17:33:54.440Z,9.51
2022-10-28T17:36:24.048Z,9.52
2022-10-28T17:38:52.285Z,9.49
2022-10-28T17:41:20.654Z,9.51
2022-10-28T17:43:53.257Z,9.53
2022-10-28T17:46:21.319Z,9.53
2022-10-28T17:48:49.640Z,9.53
2022-10-28T17:51:20.315Z,9.56
2022-10-28T17:53:48.348Z,9.55
2022-10-28T17:56:16.547Z,9.60
2022-10-28T17:58:44.934Z,9.48
2022-10-28T18:01:14.702Z,9.43
2022-10-28T18:03:42.925Z,9.50
2022-10-28T18:06:12.649Z,9.54
2022-10-28T18:08:41.756Z,9.50
2022-10-28T18:11:10.715Z,9.50
2022-10-28T18:13:39.568Z,9.55
2022-10-28T18:16:08.307Z,9.56
2022-10-28T18:18:42.053Z,9.55
2022-10-28T18:21:11.573Z,9.57
2022-10-28T18:23:41.160Z,9.56
2022-10-28T18:26:12.049Z,9.57
2022-10-28T18:28:40.563Z,9.48
2022-10-28T18:31:09.277Z,9.45
2022-10-28T18:33:38.729Z,9.46
2022-10-28T18:36:07.723Z,9.44
2022-10-28T18:38:35.828Z,9.44
2022-10-28T18:41:04.228Z,9.47
2022-10-28T18:43:32.773Z,9.50
2022-10-28T18:46:02.804Z,9.47
2022-10-28T18:48:31.424Z,9.41
2022-10-28T18:51:02.117Z,9.45
2022-10-28T18:53:30.146Z,9.43
2022-10-28T18:56:00.833Z,9.47
2022-10-28T18:58:29.143Z,9.50
2022-10-28T19:01:04.534Z,9.41
2022-10-28T19:03:32.613Z,9.40
2022-10-28T19:06:05.722Z,9.46
2022-10-28T19:08:33.886Z,9.53
2022-10-28T19:11:04.053Z,9.56
2022-10-28T19:13:34.376Z,9.56
2022-10-28T19:16:05.035Z,9.57
2022-10-28T19:18:35.684Z,9.60
2022-10-28T19:21:05.816Z,9.65
2022-10-28T19:23:33.897Z,9.67
2022-10-28T19:26:02.122Z,9.67
2022-10-28T19:28:30.278Z,9.67
2022-10-28T19:31:02.672Z,9.65
2022-10-28T19:33:31.409Z,9.59
2022-10-28T19:36:03.235Z,9.56
2022-10-28T19:38:33.645Z,9.49
2022-10-28T19:41:05.817Z,9.57
2022-10-28T19:43:33.897Z,9.54
2022-10-28T19:46:05.581Z,9.60
2022-10-28T19:48:33.576Z,9.65
2022-10-28T19:51:01.784Z,9.61
2022-10-28T19:53:30.071Z,9.70
2022-10-28T19:56:00.888Z,9.68
2022-10-28T19:58:30.272Z,9.67
2022-10-28T20:00:59.329Z,9.74
2022-10-28T20:03:29.533Z,9.82
2022-10-28T20:06:05.318Z,9.77
2022-10-28T20:08:34.901Z,9.72
2022-10-28T20:11:05.108Z,9.66
2022-10-28T20:13:33.951Z,9.66
2022-10-28T20:16:02.774Z,9.68
2022-10-28T20:18:32.074Z,9.74
2022-10-28T20:21:06.985Z,9.74
2022-10-28T20:23:35.976Z,9.78
2022-10-28T20:26:06.111Z,9.81
2022-10-28T20:28:34.406Z,9.80
2022-10-28T20:31:04.132Z,9.69
2022-10-28T20:33:32.474Z,9.78
2022-10-28T20:36:00.635Z,9.75
2022-10-28T20:38:29.255Z,9.74
2022-10-28T20:40:58.412Z,9.77
2022-10-28T20:43:28.684Z,9.75
2022-10-28T20:45:58.981Z,9.81
2022-10-28T20:48:27.403Z,9.83
2022-10-28T20:50:56.134Z,9.88
2022-10-28T20:53:24.667Z,9.87
2022-10-28T20:55:53.273Z,9.81
2022-10-28T20:58:21.942Z,9.85
2022-10-28T21:00:51.714Z,9.88
2022-10-28T21:03:19.749Z,9.98
2022-10-28T21:05:48.119Z,9.98
2022-10-28T21:08:16.304Z,9.96
2022-10-28T21:10:44.341Z,10.02
2022-10-28T21:13:12.381Z,10.05
2022-10-28T21:15:41.341Z,10.12
2022-10-28T21:18:10.836Z,10.10
2022-10-28T21:20:39.857Z,10.10
2022-10-28T21:23:09.198Z,10.14
2022-10-28T21:25:46.979Z,10.01
2022-10-28T21:28:18.140Z,10.08
2022-10-28T21:30:46.086Z,10.10
2022-10-28T21:33:17.828Z,10.11
2022-10-28T21:35:45.804Z,10.10
2022-10-28T21:38:13.819Z,10.08
2022-10-28T21:40:41.824Z,10.08
2022-10-28T21:43:11.085Z,10.07
2022-10-28T21:45:42.261Z,10.07
2022-10-28T21:48:10.242Z,9.97
2022-10-28T21:50:39.878Z,9.96
2022-10-28T21:53:07.926Z,10.00
2022-10-28T21:55:46.158Z,10.04
2022-10-28T21:58:15.584Z,10.05
2022-10-28T22:00:44.687Z,10.08
2022-10-28T22:03:13.490Z,10.10
2022-10-28T22:05:50.416Z,10.06
2022-10-28T22:08:19.935Z,10.07
2022-10-28T22:10:47.975Z,10.10
2022-10-28T22:13:16.084Z,10.02
2022-10-28T22:15:44.163Z,9.97
2022-10-28T22:18:12.155Z,9.93
2022-10-28T22:20:40.086Z,9.86
2022-10-28T22:23:09.468Z,9.87
2022-10-28T22:25:38.296Z,9.92
2022-10-28T22:28:06.413Z,9.98
2022-10-28T22:30:34.478Z,10.03
2022-10-28T22:33:02.477Z,10.08
2022-10-28T22:35:30.391Z,10.04
2022-10-28T22:37:58.553Z,9.97
2022-10-28T22:40:29.562Z,9.97
2022-10-28T22:42:57.860Z,9.98
2022-10-28T22:45:25.882Z,9.99
2022-10-28T22:47:54.096Z,9.95
2022-10-28T22:50:22.215Z,9.91
2022-10-28T22:52:50.243Z,9.99
2022-10-28T22:55:24.277Z,10.04
2022-10-28T22:58:01.193Z,10.04
2022-10-28T23:00:29.385Z,10.01
2022-10-28T23:02:59.740Z,10.03
2022-10-28T23:05:28.150Z,9.95
2022-10-28T23:07:56.233Z,9.97
2022-10-28T23:10:24.139Z,9.98
2022-10-28T23:12:57.740Z,9.85
2022-10-28T23:15:26.061Z,9.84
2022-10-28T23:17:55.205Z,9.91
2022-10-28T23:20:27.096Z,10.02
2022-10-28T23:22:56.667Z,9.87
2022-10-28T23:25:47.520Z,9.86
2022-10-28T23:28:16.890Z,9.91
2022-10-28T23:30:44.768Z,9.93
2022-10-28T23:33:12.753Z,9.97
2022-10-28T23:35:41.942Z,9.89
2022-10-28T23:38:11.297Z,9.96
2022-10-28T23:40:39.461Z,9.97
2022-10-28T23:43:07.508Z,9.95
2022-10-28T23:45:36.975Z,9.90
2022-10-28T23:48:04.943Z,9.90
2022-10-28T23:50:33.120Z,9.89
2022-10-28T23:53:01.137Z,9.90
2022-10-28T23:55:33.737Z,9.82
2022-10-28T23:58:01.828Z,9.73
